createdAt,value
2022-09-09T00:02:13.288Z,97239.44
2022-09-09T00:04:42.805Z,97251.69
2022-09-09T00:07:51.730Z,97250.50
2022-09-09T00:10:25.240Z,97253.31
2022-09-09T00:13:30.243Z,97244.16
2022-09-09T00:16:21.015Z,97240.16
2022-09-09T00:19:19.536Z,97239.56
2022-09-09T00:22:05.289Z,97249.81
2022-09-09T00:24:55.714Z,97234.63
2022-09-09T00:27:29.125Z,97241.69
2022-09-09T00:30:23.505Z,97234.97
2022-09-09T00:33:05.238Z,97240.63
2022-09-09T00:35:39.319Z,97239.06
2022-09-09T00:38:28.762Z,97236.28
2022-09-09T00:41:15.002Z,97241.34
2022-09-09T00:43:43.543Z,97237.81
2022-09-09T00:46:51.235Z,97242.97
2022-09-09T00:49:47.561Z,97236.28
2022-09-09T00:52:46.829Z,97240.63
2022-09-09T00:55:22.746Z,97250.63
2022-09-09T00:57:53.697Z,97244.41
2022-09-09T01:00:52.252Z,97236.28
2022-09-09T01:03:38.222Z,97244.03
2022-09-09T01:06:27.807Z,97232.63
2022-09-09T01:09:28.817Z,97233.66
2022-09-09T01:12:25.533Z,97236.88
2022-09-09T01:15:31.433Z,97235.19
2022-09-09T01:18:14.920Z,97233.34
2022-09-09T01:21:07.435Z,97240.25
2022-09-09T01:23:43.810Z,97240.53
2022-09-09T01:26:40.403Z,97240.97
2022-09-09T01:29:19.505Z,97243.81
2022-09-09T01:31:57.859Z,97247.22
2022-09-09T01:34:37.558Z,97253.34
2022-09-09T01:37:10.168Z,97251.44
2022-09-09T01:39:40.389Z,97250.63
2022-09-09T01:42:17.057Z,97258.75
2022-09-09T01:44:45.828Z,97251.09
2022-09-09T01:47:15.762Z,97252.97
2022-09-09T01:50:04.868Z,97251.09
2022-09-09T01:52:41.620Z,97263.56
2022-09-09T01:55:13.460Z,97274.84
2022-09-09T01:58:05.282Z,97256.41
2022-09-09T02:00:38.282Z,97264.88
2022-09-09T02:03:30.497Z,97257.91
2022-09-09T02:06:21.173Z,97251.06
2022-09-09T02:08:57.214Z,97259.78
2022-09-09T02:11:28.954Z,97257.81
2022-09-09T02:14:17.557Z,97260.47
2022-09-09T02:17:02.889Z,97255.19
2022-09-09T02:19:57.149Z,97267.06
2022-09-09T02:22:40.499Z,97266.47
2022-09-09T02:25:12.994Z,97276.31
2022-09-09T02:27:44.646Z,97272.31
2022-09-09T02:30:13.522Z,97252.22
2022-09-09T02:32:53.923Z,97248.13
2022-09-09T02:35:27.579Z,97258.06
2022-09-09T02:38:00.534Z,97253.28
2022-09-09T02:40:28.792Z,97252.22
2022-09-09T02:43:01.750Z,97244.94
2022-09-09T02:45:50.595Z,97246.94
2022-09-09T02:48:47.205Z,97230.25
2022-09-09T02:51:44.391Z,97231.31
2022-09-09T02:54:33.150Z,97225.09
2022-09-09T02:57:12.355Z,97226.16
2022-09-09T02:59:42.584Z,97217.78
2022-09-09T03:02:12.426Z,97215.19
2022-09-09T03:04:45.402Z,97224.81
2022-09-09T03:07:14.487Z,97228.69
2022-09-09T03:09:43.510Z,97229.28
2022-09-09T03:12:12.539Z,97226.47
2022-09-09T03:14:41.409Z,97228.56
2022-09-09T03:17:10.226Z,97229.47
2022-09-09T03:19:45.163Z,97223.94
2022-09-09T03:22:14.329Z,97221.34
2022-09-09T03:24:43.904Z,97222.41
2022-09-09T03:27:11.670Z,97216.84
2022-09-09T03:29:40.400Z,97221.50
2022-09-09T03:32:13.782Z,97223.22
2022-09-09T03:34:41.777Z,97233.09
2022-09-09T03:37:12.857Z,97234.84
2022-09-09T03:39:41.193Z,97229.44
2022-09-09T03:42:13.462Z,97237.28
2022-09-09T03:44:43.032Z,97237.88
2022-09-09T03:47:11.041Z,97236.34
2022-09-09T03:49:39.251Z,97239.72
2022-09-09T03:52:09.121Z,97242.19
2022-09-09T03:54:36.970Z,97243.47
2022-09-09T03:57:05.825Z,97232.69
2022-09-09T03:59:33.705Z,97239.94
2022-09-09T04:02:02.089Z,97244.66
2022-09-09T04:04:30.017Z,97243.59
2022-09-09T04:06:58.200Z,97248.19
2022-09-09T04:09:25.999Z,97248.41
2022-09-09T04:11:54.244Z,97240.06
2022-09-09T04:14:23.138Z,97243.81
2022-09-09T04:16:50.946Z,97239.03
2022-09-09T04:19:18.818Z,97242.94
2022-09-09T04:21:52.663Z,97239.84
2022-09-09T04:24:23.141Z,97241.19
2022-09-09T04:26:51.618Z,97248.22
2022-09-09T04:29:19.511Z,97254.81
2022-09-09T04:31:47.287Z,97249.78
2022-09-09T04:34:15.149Z,97249.78
2022-09-09T04:36:42.909Z,97260.13
2022-09-09T04:39:11.055Z,97254.50
2022-09-09T04:41:40.107Z,97255.09
2022-09-09T04:44:07.876Z,97256.16
2022-09-09T04:46:35.775Z,97253.44
2022-09-09T04:49:03.605Z,97262.84
2022-09-09T04:51:34.637Z,97273.75
2022-09-09T04:54:03.288Z,97264.44
2022-09-09T04:56:32.102Z,97276.28
2022-09-09T04:59:03.913Z,97277.09
2022-09-09T05:01:39.345Z,97276.47
2022-09-09T05:04:07.271Z,97281.75
2022-09-09T05:06:37.265Z,97281.00
2022-09-09T05:09:06.131Z,97286.25
2022-09-09T05:11:37.047Z,97285.88
2022-09-09T05:14:12.492Z,97289.16
2022-09-09T05:16:40.479Z,97280.63
2022-09-09T05:19:10.150Z,97287.69
2022-09-09T05:21:55.907Z,97282.19
2022-09-09T05:24:29.547Z,97280.09
2022-09-09T05:27:00.842Z,97285.97
2022-09-09T05:29:29.329Z,97287.38
2022-09-09T05:31:58.241Z,97293.97
2022-09-09T05:34:26.374Z,97298.28
2022-09-09T05:36:54.775Z,97299.13
2022-09-09T05:39:24.401Z,97299.94
2022-09-09T05:41:52.855Z,97286.03
2022-09-09T05:44:21.203Z,97296.38
2022-09-09T05:46:48.990Z,97299.22
2022-09-09T05:49:17.262Z,97299.22
2022-09-09T05:51:46.055Z,97299.59
2022-09-09T05:54:16.598Z,97299.09
2022-09-09T05:56:51.816Z,97299.31
2022-09-09T05:59:20.960Z,97304.28
2022-09-09T06:01:48.827Z,97301.81
2022-09-09T06:04:25.905Z,97302.78
2022-09-09T06:06:54.386Z,97305.63
2022-09-09T06:09:23.953Z,97298.34
2022-09-09T06:11:51.799Z,97301.25
2022-09-09T06:14:21.532Z,97305.25
2022-09-09T06:16:50.594Z,97302.00
2022-09-09T06:19:22.876Z,97303.78
2022-09-09T06:21:51.295Z,97305.66
2022-09-09T06:24:20.557Z,97309.78
2022-09-09T06:26:48.381Z,97304.59
2022-09-09T06:29:23.763Z,97302.13
2022-09-09T06:31:52.894Z,97304.00
2022-09-09T06:34:25.570Z,97309.41
2022-09-09T06:36:59.403Z,97313.41
2022-09-09T06:39:32.232Z,97306.59
2022-09-09T06:42:00.264Z,97315.50
2022-09-09T06:44:46.367Z,97308.13
2022-09-09T06:47:20.984Z,97314.72
2022-09-09T06:49:49.276Z,97309.44
2022-09-09T06:52:19.266Z,97324.03
2022-09-09T06:54:47.868Z,97321.72
2022-09-09T07:00:07.386Z,97312.22
2022-09-09T07:02:40.086Z,97312.69
2022-09-09T07:05:09.460Z,97319.88
2022-09-09T07:07:37.840Z,97316.28
2022-09-09T07:10:06.936Z,97325.53
2022-09-09T07:12:36.300Z,97322.13
2022-09-09T07:15:04.964Z,97317.19
2022-09-09T07:17:32.758Z,97330.03
2022-09-09T07:20:02.990Z,97333.31
2022-09-09T07:22:31.162Z,97324.84
2022-09-09T07:24:59.012Z,97332.50
2022-09-09T07:27:27.805Z,97321.69
2022-09-09T07:29:55.654Z,97321.69
2022-09-09T07:32:23.715Z,97323.81
2022-09-09T07:34:51.632Z,97326.84
2022-09-09T07:37:20.094Z,97330.84
2022-09-09T07:39:49.252Z,97326.50
2022-09-09T07:42:18.631Z,97332.97
2022-09-09T07:44:46.614Z,97329.44
2022-09-09T07:47:17.065Z,97326.50
2022-09-09T07:49:50.782Z,97322.69
2022-09-09T07:52:23.423Z,97318.59
2022-09-09T07:54:55.425Z,97330.47
2022-09-09T07:57:23.211Z,97319.28
2022-09-09T07:59:53.238Z,97318.34
2022-09-09T08:02:21.509Z,97322.56
2022-09-09T08:04:49.301Z,97324.84
2022-09-09T08:07:19.187Z,97331.88
2022-09-09T08:09:52.563Z,97323.75
2022-09-09T08:12:27.482Z,97317.38
2022-09-09T08:14:55.748Z,97306.94
2022-09-09T08:17:26.131Z,97327.06
2022-09-09T08:19:55.205Z,97338.00
2022-09-09T08:22:27.281Z,97355.63
2022-09-09T08:24:56.180Z,97353.25
2022-09-09T08:27:25.300Z,97356.78
2022-09-09T08:29:54.395Z,97344.66
2022-09-09T08:32:22.176Z,97347.84
2022-09-09T08:34:54.551Z,97338.50
2022-09-09T08:37:24.529Z,97327.97
2022-09-09T08:39:54.292Z,97315.00
2022-09-09T08:42:50.620Z,97315.25
2022-09-09T08:45:35.924Z,97339.00
2022-09-09T08:48:53.430Z,97342.09
2022-09-09T08:51:21.772Z,97340.31
2022-09-09T08:53:55.383Z,97334.41
2022-09-09T08:56:28.230Z,97339.78
2022-09-09T08:59:03.747Z,97336.22
2022-09-09T09:01:52.004Z,97334.09
2022-09-09T09:05:00.182Z,97343.84
2022-09-09T09:07:59.390Z,97347.00
2022-09-09T09:10:52.121Z,97345.44
2022-09-09T09:13:32.463Z,97347.91
2022-09-09T09:16:39.866Z,97339.69
2022-09-09T09:19:16.642Z,97332.06
2022-09-09T09:22:30.282Z,97321.03
2022-09-09T09:25:09.330Z,97328.22
2022-09-09T09:28:01.744Z,97324.66
2022-09-09T09:30:42.780Z,97328.28
2022-09-09T09:33:34.114Z,97333.22
2022-09-09T09:36:03.869Z,97324.25
2022-09-09T09:41:39.677Z,97317.09
2022-09-09T09:44:29.573Z,97309.28
2022-09-09T09:47:22.680Z,97314.28
2022-09-09T09:50:03.356Z,97303.91
2022-09-09T09:52:37.851Z,97317.66
2022-09-09T09:55:15.537Z,97311.47
2022-09-09T09:57:45.777Z,97314.50
2022-09-09T10:00:24.187Z,97312.50
2022-09-09T10:03:16.612Z,97299.72
2022-09-09T10:05:48.022Z,97307.38
2022-09-09T10:08:18.977Z,97320.47
2022-09-09T10:11:15.115Z,97313.56
2022-09-09T10:14:04.848Z,97314.06
2022-09-09T10:17:23.857Z,97305.03
2022-09-09T10:20:34.733Z,97307.28
2022-09-09T10:23:45.253Z,97304.63
2022-09-09T10:26:56.373Z,97301.91
2022-09-09T10:29:30.279Z,97296.91
2022-09-09T10:32:10.861Z,97298.94
2022-09-09T10:35:09.751Z,97304.06
2022-09-09T10:38:13.079Z,97304.41
2022-09-09T10:41:21.387Z,97308.31
2022-09-09T10:44:00.427Z,97307.00
2022-09-09T10:47:11.431Z,97303.44
2022-09-09T10:50:07.948Z,97305.56
2022-09-09T10:52:53.202Z,97307.72
2022-09-09T10:55:40.498Z,97325.75
2022-09-09T10:58:52.416Z,97322.03
2022-09-09T11:01:38.200Z,97333.25
2022-09-09T11:04:41.938Z,97342.38
2022-09-09T11:07:15.561Z,97343.81
2022-09-09T11:09:54.129Z,97339.06
2022-09-09T11:12:27.723Z,97353.66
2022-09-09T11:15:22.250Z,97360.44
2022-09-09T11:18:01.809Z,97360.16
2022-09-09T11:20:29.725Z,97360.19
2022-09-09T11:23:01.447Z,97369.72
2022-09-09T11:25:41.646Z,97375.72
2022-09-09T11:28:37.583Z,97370.75
2022-09-09T11:31:09.101Z,97374.34
2022-09-09T11:34:07.163Z,97375.91
2022-09-09T11:37:18.395Z,97369.81
2022-09-09T11:39:58.612Z,97361.81
2022-09-09T11:42:26.966Z,97359.09
2022-09-09T11:44:56.102Z,97353.31
2022-09-09T11:47:30.638Z,97343.16
2022-09-09T11:50:16.643Z,97337.94
2022-09-09T11:52:50.493Z,97334.88
2022-09-09T11:55:37.863Z,97321.94
2022-09-09T11:58:12.647Z,97309.34
2022-09-09T12:00:45.462Z,97305.00
2022-09-09T12:03:43.235Z,97310.13
2022-09-09T12:07:04.923Z,97296.94
2022-09-09T12:10:01.894Z,97301.31
2022-09-09T12:12:32.762Z,97301.09
2022-09-09T12:15:09.456Z,97298.38
2022-09-09T12:17:47.628Z,97287.50
2022-09-09T12:20:50.435Z,97292.19
2022-09-09T12:23:27.885Z,97280.91
2022-09-09T12:26:33.864Z,97284.34
2022-09-09T12:29:16.224Z,97284.63
2022-09-09T12:32:07.154Z,97272.53
2022-09-09T12:34:54.792Z,97297.28
2022-09-09T12:37:41.081Z,97278.47
2022-09-09T12:40:29.719Z,97286.00
2022-09-09T12:42:57.504Z,97283.72
2022-09-09T12:45:29.633Z,97281.00
2022-09-09T12:48:05.903Z,97284.03
2022-09-09T12:50:39.157Z,97282.78
2022-09-09T12:53:21.173Z,97281.31
2022-09-09T12:55:58.176Z,97273.88
2022-09-09T12:58:27.158Z,97279.66
2022-09-09T13:00:58.411Z,97268.03
2022-09-09T13:03:27.151Z,97262.59
2022-09-09T13:06:18.572Z,97264.56
2022-09-09T13:08:46.427Z,97273.94
2022-09-09T13:11:37.285Z,97271.38
2022-09-09T13:14:05.641Z,97274.47
2022-09-09T13:16:42.094Z,97269.59
2022-09-09T13:19:16.955Z,97268.88
2022-09-09T13:21:44.970Z,97263.38
2022-09-09T13:24:43.715Z,97263.06
2022-09-09T13:27:43.348Z,97259.19
2022-09-09T13:30:30.357Z,97256.84
2022-09-09T13:33:23.572Z,97253.56
2022-09-09T13:36:03.882Z,97257.50
2022-09-09T13:38:37.657Z,97250.88
2022-09-09T13:41:09.641Z,97254.25
2022-09-09T13:43:56.428Z,97245.34
2022-09-09T13:46:41.585Z,97246.31
2022-09-09T13:49:12.287Z,97245.75
2022-09-09T13:51:51.584Z,97238.44
2022-09-09T13:54:21.969Z,97259.16
2022-09-09T13:56:50.767Z,97244.34
2022-09-09T13:59:20.992Z,97250.78
2022-09-09T14:01:50.281Z,97241.09
2022-09-09T14:04:19.068Z,97247.41
2022-09-09T14:06:46.822Z,97238.53
2022-09-09T14:09:17.379Z,97239.97
2022-09-09T14:11:49.432Z,97241.16
2022-09-09T14:14:17.240Z,97226.09
2022-09-09T14:16:45.466Z,97228.56
2022-09-09T14:19:13.265Z,97230.31
2022-09-09T14:21:41.041Z,97226.69
2022-09-09T14:24:08.782Z,97227.28
2022-09-09T14:26:36.549Z,97226.50
2022-09-09T14:29:04.271Z,97221.59
2022-09-09T14:31:31.974Z,97234.72
2022-09-09T14:34:00.058Z,97230.56
2022-09-09T14:36:27.854Z,97224.53
2022-09-09T14:38:55.650Z,97229.75
2022-09-09T14:41:26.656Z,97221.19
2022-09-09T14:43:54.997Z,97235.44
2022-09-09T14:46:23.203Z,97237.16
2022-09-09T14:48:51.189Z,97242.25
2022-09-09T14:51:23.861Z,97253.09
2022-09-09T14:53:57.673Z,97249.56
2022-09-09T14:56:32.572Z,97260.16
2022-09-09T14:59:03.589Z,97258.25
2022-09-09T15:01:33.227Z,97263.84
2022-09-09T15:04:04.561Z,97263.53
2022-09-09T15:06:36.833Z,97272.41
2022-09-09T15:09:04.777Z,97260.16
2022-09-09T15:11:38.809Z,97256.38
2022-09-09T15:14:09.074Z,97263.53
2022-09-09T15:16:37.518Z,97255.69
2022-09-09T15:19:05.738Z,97255.19
2022-09-09T15:21:36.302Z,97250.88
2022-09-09T15:24:05.609Z,97251.72
2022-09-09T15:26:33.383Z,97243.09
2022-09-09T15:29:01.600Z,97248.44
2022-09-09T15:31:32.849Z,97246.25
2022-09-09T15:34:04.820Z,97236.69
2022-09-09T15:36:52.543Z,97245.19
2022-09-09T15:39:20.641Z,97250.53
2022-09-09T15:41:49.635Z,97263.44
2022-09-09T15:44:17.823Z,97263.72
2022-09-09T15:46:52.411Z,97257.59
2022-09-09T15:49:28.230Z,97260.19
2022-09-09T15:51:59.301Z,97263.06
2022-09-09T15:54:27.582Z,97264.59
2022-09-09T15:57:01.870Z,97267.19
2022-09-09T15:59:32.211Z,97268.03
2022-09-09T16:02:01.187Z,97284.03
2022-09-09T16:04:30.569Z,97291.56
2022-09-09T16:07:04.052Z,97324.34
2022-09-09T16:09:33.549Z,97341.00
2022-09-09T16:12:03.460Z,97337.75
2022-09-09T16:14:35.147Z,97346.97
2022-09-09T16:17:04.831Z,97337.06
2022-09-09T16:19:33.686Z,97336.78
2022-09-09T16:22:02.023Z,97341.81
2022-09-09T16:24:29.958Z,97333.94
2022-09-09T16:26:58.968Z,97348.44
2022-09-09T16:29:28.345Z,97332.91
2022-09-09T16:32:01.264Z,97340.31
2022-09-09T16:34:31.488Z,97336.25
2022-09-09T16:36:59.301Z,97327.81
2022-09-09T16:39:27.098Z,97330.34
2022-09-09T16:41:55.004Z,97338.22
2022-09-09T16:44:22.929Z,97336.72
2022-09-09T16:46:58.101Z,97338.31
2022-09-09T16:49:29.368Z,97344.41
2022-09-09T16:52:00.314Z,97342.91
2022-09-09T16:54:29.622Z,97327.16
2022-09-09T16:56:58.512Z,97319.66
2022-09-09T16:59:27.463Z,97324.72
2022-09-09T17:01:55.671Z,97326.34
2022-09-09T17:04:28.889Z,97318.97
2022-09-09T17:06:58.473Z,97319.09
2022-09-09T17:09:30.208Z,97322.41
2022-09-09T17:11:59.491Z,97328.50
2022-09-09T17:14:27.764Z,97333.91
2022-09-09T17:16:55.506Z,97324.00
2022-09-09T17:19:23.232Z,97335.19
2022-09-09T17:22:15.058Z,97333.75
2022-09-09T17:24:39.576Z,97334.38
2022-09-09T17:27:08.114Z,97336.59
2022-09-09T17:29:36.974Z,97346.00
2022-09-09T17:32:06.482Z,97347.00
2022-09-09T17:34:35.550Z,97342.66
2022-09-09T17:37:04.067Z,97341.13
2022-09-09T17:39:31.919Z,97327.59
2022-09-09T17:41:59.714Z,97333.22
2022-09-09T17:44:27.585Z,97335.78
2022-09-09T17:46:57.074Z,97328.16
2022-09-09T17:49:24.789Z,97331.44
2022-09-09T17:51:52.932Z,97328.16
2022-09-09T17:54:21.638Z,97331.44
2022-09-09T17:56:49.942Z,97328.06
2022-09-09T17:59:18.976Z,97333.69
2022-09-09T18:01:52.989Z,97334.03
2022-09-09T18:04:20.999Z,97344.19
2022-09-09T18:06:51.827Z,97346.81
2022-09-09T18:09:24.861Z,97348.03
2022-09-09T18:11:57.062Z,97352.00
2022-09-09T18:14:31.154Z,97353.88
2022-09-09T18:17:02.088Z,97350.72
2022-09-09T18:19:32.881Z,97359.44
2022-09-09T18:22:02.681Z,97359.66
2022-09-09T18:24:31.253Z,97367.75
2022-09-09T18:26:59.379Z,97365.50
2022-09-09T18:29:27.199Z,97379.22
2022-09-09T18:31:56.266Z,97371.00
2022-09-09T18:34:25.720Z,97373.34
2022-09-09T18:36:55.993Z,97385.88
2022-09-09T18:39:29.391Z,97380.31
2022-09-09T18:42:00.447Z,97382.25
2022-09-09T18:44:33.476Z,97386.63
2022-09-09T18:47:03.659Z,97392.69
2022-09-09T18:49:33.351Z,97390.88
2022-09-09T18:52:02.819Z,97388.19
2022-09-09T18:54:33.341Z,97392.78
2022-09-09T18:57:01.670Z,97389.84
2022-09-09T18:59:30.706Z,97393.38
2022-09-09T19:01:58.558Z,97388.66
2022-09-09T19:04:27.518Z,97389.25
2022-09-09T19:06:59.754Z,97393.97
2022-09-09T19:09:31.831Z,97388.56
2022-09-09T19:12:01.299Z,97396.22
2022-09-09T19:14:29.605Z,97387.06
2022-09-09T19:16:57.836Z,97389.97
2022-09-09T19:19:30.616Z,97390.06
2022-09-09T19:21:59.548Z,97389.97
2022-09-09T19:24:33.372Z,97383.88
2022-09-09T19:27:06.798Z,97393.59
2022-09-09T19:29:37.598Z,97392.06
2022-09-09T19:34:53.734Z,97389.50
2022-09-09T19:37:22.521Z,97383.50
2022-09-09T19:39:50.809Z,97391.75
2022-09-09T19:42:18.969Z,97389.88
2022-09-09T19:44:46.747Z,97389.69
2022-09-09T19:47:15.149Z,97386.19
2022-09-09T19:49:46.912Z,97387.81
2022-09-09T19:52:17.248Z,97394.66
2022-09-09T19:54:46.734Z,97393.81
2022-09-09T19:57:14.780Z,97400.91
2022-09-09T19:59:42.697Z,97406.31
2022-09-09T20:02:15.728Z,97406.72
2022-09-09T20:04:44.589Z,97423.16
2022-09-09T20:07:12.896Z,97420.88
2022-09-09T20:09:40.662Z,97420.28
2022-09-09T20:12:10.161Z,97424.59
2022-09-09T20:14:39.762Z,97428.16
2022-09-09T20:17:08.636Z,97428.59
2022-09-09T20:19:36.433Z,97430.47
2022-09-09T20:22:04.490Z,97432.56
2022-09-09T20:24:32.204Z,97437.50
2022-09-09T20:26:59.944Z,97441.28
2022-09-09T20:29:27.700Z,97438.56
2022-09-09T20:31:55.417Z,97438.97
2022-09-09T20:34:25.825Z,97446.81
2022-09-09T20:36:54.707Z,97445.19
2022-09-09T20:39:22.520Z,97440.59
2022-09-09T20:41:51.383Z,97442.66
2022-09-09T20:44:24.334Z,97448.69
2022-09-09T20:46:57.972Z,97443.66
2022-09-09T20:49:25.712Z,97450.16
2022-09-09T20:51:54.226Z,97453.78
2022-09-09T20:54:25.125Z,97456.69
2022-09-09T20:56:55.400Z,97456.53
2022-09-09T20:59:29.042Z,97453.97
2022-09-09T21:01:58.083Z,97464.59
2022-09-09T21:04:26.183Z,97457.19
2022-09-09T21:06:54.428Z,97451.44
2022-09-09T21:09:25.000Z,97443.44
2022-09-09T21:11:53.741Z,97450.91
2022-09-09T21:14:22.253Z,97445.13
2022-09-09T21:16:50.311Z,97446.78
2022-09-09T21:19:18.038Z,97440.16
2022-09-09T21:21:47.929Z,97444.34
2022-09-09T21:24:16.044Z,97446.25
2022-09-09T21:26:43.834Z,97448.13
2022-09-09T21:29:13.128Z,97445.63
2022-09-09T21:31:41.130Z,97448.56
2022-09-09T21:34:09.861Z,97443.38
2022-09-09T21:36:37.649Z,97441.72
2022-09-09T21:39:05.398Z,97433.25
2022-09-09T21:41:33.135Z,97431.84
2022-09-09T21:44:00.870Z,97445.31
2022-09-09T21:46:29.403Z,97440.53
2022-09-09T21:48:58.637Z,97442.97
2022-09-09T21:51:26.408Z,97436.34
2022-09-09T21:53:57.584Z,97442.16
2022-09-09T21:56:26.891Z,97452.34
2022-09-09T21:59:03.765Z,97444.47
2022-09-09T22:01:35.309Z,97449.06
2022-09-09T22:04:03.723Z,97455.25
2022-09-09T22:06:31.515Z,97444.25
2022-09-09T22:08:59.467Z,97446.53
2022-09-09T22:11:28.158Z,97443.84
2022-09-09T22:13:56.008Z,97439.03
2022-09-09T22:16:24.222Z,97441.53
2022-09-09T22:18:56.823Z,97432.38
2022-09-09T22:21:27.204Z,97441.88
2022-09-09T22:23:58.911Z,97441.66
2022-09-09T22:26:29.889Z,97448.25
2022-09-09T22:28:57.992Z,97453.00
2022-09-09T22:31:27.170Z,97472.50
2022-09-09T22:33:55.291Z,97482.53
2022-09-09T22:36:23.935Z,97499.78
2022-09-09T22:38:53.362Z,97505.66
2022-09-09T22:41:21.122Z,97495.88
2022-09-09T22:43:49.099Z,97495.81
2022-09-09T22:46:18.799Z,97484.22
2022-09-09T22:48:47.254Z,97493.31
2022-09-09T22:51:16.281Z,97495.19
2022-09-09T22:53:45.577Z,97499.97
2022-09-09T22:56:18.367Z,97495.41
2022-09-09T22:58:47.389Z,97495.25
2022-09-09T23:01:19.405Z,97488.59
2022-09-09T23:03:49.487Z,97486.72
2022-09-09T23:06:22.508Z,97479.69
2022-09-09T23:08:57.198Z,97480.91
2022-09-09T23:11:31.812Z,97476.53
2022-09-09T23:14:02.779Z,97472.03
2022-09-09T23:16:40.557Z,97472.69
2022-09-09T23:19:15.994Z,97459.19
2022-09-09T23:21:46.274Z,97461.09
2022-09-09T23:24:16.444Z,97468.31
2022-09-09T23:26:45.688Z,97463.41
2022-09-09T23:29:14.740Z,97464.41
2022-09-09T23:31:45.256Z,97465.00
2022-09-09T23:34:13.933Z,97467.31
2022-09-09T23:36:41.861Z,97468.38
2022-09-09T23:39:11.801Z,97466.50
2022-09-09T23:41:40.374Z,97464.63
2022-09-09T23:44:08.724Z,97462.94
2022-09-09T23:46:36.670Z,97455.03
2022-09-09T23:49:05.011Z,97457.50
2022-09-09T23:51:34.906Z,97458.94
2022-09-09T23:54:04.966Z,97462.25
2022-09-09T23:56:40.514Z,97449.19
2022-09-09T23:59:09.271Z,97454.81
